createdAt,value
2022-08-04T00:00:15.003Z,101399.33
2022-08-04T00:03:14.934Z,101395.60
2022-08-04T00:06:05.460Z,101394.79
2022-08-04T00:08:55.619Z,101391.48
2022-08-04T00:11:26.506Z,101393.97
2022-08-04T00:14:03.250Z,101398.97
2022-08-04T00:16:37.553Z,101396.48
2022-08-04T00:19:11.304Z,101390.27
2022-08-04T00:21:40.079Z,101406.88
2022-08-04T00:24:12.995Z,101405.64
2022-08-04T00:26:44.289Z,101406.91
2022-08-04T00:29:16.777Z,101404.01
2022-08-04T00:31:56.054Z,101397.77
2022-08-04T00:34:28.191Z,101391.12
2022-08-04T00:36:56.679Z,101397.80
2022-08-04T00:39:24.661Z,101394.46
2022-08-04T00:42:19.827Z,101400.70
2022-08-04T00:44:47.490Z,101398.61
2022-08-04T00:47:47.945Z,101401.91
2022-08-04T00:50:56.063Z,101396.91
2022-08-04T00:53:50.024Z,101408.55
2022-08-04T00:56:56.911Z,101406.88
2022-08-04T01:00:06.303Z,101410.61
2022-08-04T01:02:56.790Z,101408.98
2022-08-04T01:05:37.663Z,101410.22
2022-08-04T01:08:27.642Z,101416.43
2022-08-04T01:11:17.268Z,101414.38
2022-08-04T01:13:54.071Z,101413.95
2022-08-04T01:16:26.837Z,101418.52
2022-08-04T01:19:00.829Z,101418.52
2022-08-04T01:21:31.215Z,101414.80
2022-08-04T01:24:25.867Z,101415.62
2022-08-04T01:27:18.078Z,101417.28
2022-08-04T01:29:52.534Z,101415.62
2022-08-04T01:32:49.926Z,101403.13
2022-08-04T01:35:48.558Z,101418.49
2022-08-04T01:38:26.075Z,101399.82
2022-08-04T01:40:55.396Z,101408.12
2022-08-04T01:43:25.865Z,101401.06
2022-08-04T01:45:58.966Z,101402.30
2022-08-04T01:48:27.441Z,101398.58
2022-08-04T01:50:55.864Z,101410.19
2022-08-04T01:53:26.295Z,101402.70
2022-08-04T01:55:55.704Z,101397.73
2022-08-04T01:58:26.672Z,101393.15
2022-08-04T02:01:06.674Z,101397.30
2022-08-04T02:04:20.332Z,101403.55
2022-08-04T02:06:52.255Z,101408.48
2022-08-04T02:09:35.159Z,101403.95
2022-08-04T02:12:38.298Z,101402.27
2022-08-04T02:15:40.765Z,101398.94
2022-08-04T02:18:26.548Z,101396.03
2022-08-04T02:20:59.470Z,101404.76
2022-08-04T02:23:39.980Z,101404.30
2022-08-04T02:26:31.250Z,101398.52
2022-08-04T02:29:08.245Z,101394.72
2022-08-04T02:31:49.777Z,101405.91
2022-08-04T02:34:27.346Z,101398.84
2022-08-04T02:36:55.107Z,101408.39
2022-08-04T02:39:23.409Z,101402.60
2022-08-04T02:41:53.655Z,101398.02
2022-08-04T02:44:23.411Z,101396.32
2022-08-04T02:46:54.574Z,101400.05
2022-08-04T02:49:33.572Z,101391.35
2022-08-04T02:52:06.887Z,101380.14
2022-08-04T02:54:41.411Z,101384.26
2022-08-04T02:57:13.117Z,101382.20
2022-08-04T02:59:57.391Z,101394.62
2022-08-04T03:02:30.614Z,101392.95
2022-08-04T03:05:08.502Z,101387.98
2022-08-04T03:08:07.060Z,101388.80
2022-08-04T03:10:55.805Z,101385.08
2022-08-04T03:13:38.305Z,101380.50
2022-08-04T03:16:30.744Z,101387.13
2022-08-04T03:19:28.341Z,101379.65
2022-08-04T03:22:07.993Z,101377.62
2022-08-04T03:24:41.329Z,101384.62
2022-08-04T03:27:42.638Z,101383.38
2022-08-04T03:30:17.152Z,101386.71
2022-08-04T03:33:03.102Z,101390.05
2022-08-04T03:35:53.852Z,101382.55
2022-08-04T03:38:55.645Z,101385.05
2022-08-04T03:42:05.555Z,101382.91
2022-08-04T03:45:23.148Z,101385.01
2022-08-04T03:48:35.350Z,101402.02
2022-08-04T03:51:56.009Z,101391.65
2022-08-04T03:54:50.960Z,101402.05
2022-08-04T03:57:33.882Z,101402.86
2022-08-04T04:00:14.234Z,101398.68
2022-08-04T04:03:03.539Z,101401.98
2022-08-04T04:06:00.057Z,101397.44
2022-08-04T04:08:51.694Z,101397.86
2022-08-04T04:11:54.199Z,101399.49
2022-08-04T04:15:00.481Z,101389.09
2022-08-04T04:17:53.638Z,101395.31
2022-08-04T04:20:53.030Z,101389.06
2022-08-04T04:23:39.137Z,101401.52
2022-08-04T04:26:16.145Z,101396.16
2022-08-04T04:29:11.310Z,101391.98
2022-08-04T04:31:56.269Z,101390.73
2022-08-04T04:34:56.263Z,101396.13
2022-08-04T04:37:39.198Z,101392.79
2022-08-04T04:40:35.735Z,101397.34
2022-08-04T04:43:50.889Z,101402.73
2022-08-04T04:46:33.936Z,101409.80
2022-08-04T04:49:34.611Z,101398.19
2022-08-04T04:52:52.125Z,101401.95
2022-08-04T04:55:25.749Z,101414.83
2022-08-04T04:57:57.561Z,101405.74
2022-08-04T05:00:26.295Z,101414.86
2022-08-04T05:03:39.542Z,101429.84
2022-08-04T05:06:25.957Z,101436.08
2022-08-04T05:09:28.918Z,101421.53
2022-08-04T05:14:33.016Z,101422.80
2022-08-04T05:15:10.750Z,101424.90
2022-08-04T05:17:45.039Z,101426.99
2022-08-04T05:20:23.258Z,101426.57
2022-08-04T05:23:07.274Z,101433.63
2022-08-04T05:25:39.909Z,101429.94
2022-08-04T05:28:17.086Z,101427.45
2022-08-04T05:31:00.904Z,101437.42
2022-08-04T05:33:33.311Z,101441.18
2022-08-04T05:36:18.619Z,101451.97
2022-08-04T05:38:55.494Z,101442.06
2022-08-04T05:41:23.395Z,101441.67
2022-08-04T05:44:00.364Z,101440.04
2022-08-04T05:46:28.177Z,101442.52
2022-08-04T05:49:00.734Z,101444.62
2022-08-04T05:51:30.629Z,101440.49
2022-08-04T05:53:59.138Z,101437.59
2022-08-04T05:56:35.894Z,101438.44
2022-08-04T05:59:04.145Z,101445.50
2022-08-04T06:01:31.992Z,101443.02
2022-08-04T06:04:06.806Z,101451.35
2022-08-04T06:06:45.010Z,101444.71
2022-08-04T06:09:13.151Z,101452.20
2022-08-04T06:11:59.145Z,101459.66
2022-08-04T06:14:47.351Z,101450.93
2022-08-04T06:19:57.589Z,101450.11
2022-08-04T06:20:17.895Z,101455.99
2022-08-04T06:22:55.733Z,101452.23
2022-08-04T06:25:35.850Z,101454.72
2022-08-04T06:28:10.198Z,101441.41
2022-08-04T06:30:38.307Z,101443.47
2022-08-04T06:33:14.929Z,101454.30
2022-08-04T06:35:42.710Z,101449.72
2022-08-04T06:38:10.477Z,101452.62
2022-08-04T06:40:40.399Z,101450.53
2022-08-04T06:43:10.858Z,101459.66
2022-08-04T06:45:44.387Z,101449.26
2022-08-04T06:48:16.150Z,101450.08
2022-08-04T06:51:31.298Z,101456.29
2022-08-04T06:53:45.120Z,101460.44
2022-08-04T06:56:18.869Z,101463.38
2022-08-04T06:58:47.027Z,101459.63
2022-08-04T07:01:15.239Z,101465.41
2022-08-04T07:03:45.463Z,101465.80
2022-08-04T07:06:20.097Z,101460.37
2022-08-04T07:08:47.999Z,101454.09
2022-08-04T07:11:24.217Z,101459.46
2022-08-04T07:13:52.006Z,101459.43
2022-08-04T07:16:30.754Z,101461.48
2022-08-04T07:19:10.328Z,101454.82
2022-08-04T07:21:39.301Z,101457.30
2022-08-04T07:24:07.331Z,101447.69
2022-08-04T07:26:36.093Z,101458.48
2022-08-04T07:29:04.104Z,101456.74
2022-08-04T07:31:34.665Z,101456.32
2022-08-04T07:34:16.691Z,101463.32
2022-08-04T07:36:55.221Z,101458.64
2022-08-04T07:39:29.615Z,101446.45
2022-08-04T07:42:02.313Z,101455.96
2022-08-04T07:44:34.116Z,101454.66
2022-08-04T07:47:03.699Z,101452.85
2022-08-04T07:49:54.935Z,101454.39
2022-08-04T07:52:19.545Z,101453.38
2022-08-04T07:54:50.348Z,101450.20
2022-08-04T07:57:40.769Z,101454.66
2022-08-04T08:00:11.137Z,101454.42
2022-08-04T08:02:42.361Z,101452.92
2022-08-04T08:05:15.337Z,101457.27
2022-08-04T08:07:50.513Z,101455.47
2022-08-04T08:10:23.067Z,101449.36
2022-08-04T08:12:52.309Z,101442.85
2022-08-04T08:15:21.884Z,101457.23
2022-08-04T08:17:58.264Z,101448.60
2022-08-04T08:20:31.609Z,101453.38
2022-08-04T08:23:00.670Z,101442.98
2022-08-04T08:25:29.291Z,101443.60
2022-08-04T08:27:57.187Z,101447.52
2022-08-04T08:30:32.241Z,101449.81
2022-08-04T08:33:08.975Z,101449.52
2022-08-04T08:35:53.782Z,101450.70
2022-08-04T08:38:28.984Z,101445.79
2022-08-04T08:41:23.264Z,101446.35
2022-08-04T08:44:05.639Z,101444.23
2022-08-04T08:46:54.014Z,101447.36
2022-08-04T08:50:02.539Z,101443.90
2022-08-04T08:52:56.322Z,101446.19
2022-08-04T08:55:51.920Z,101451.52
2022-08-04T08:58:50.614Z,101446.19
2022-08-04T09:01:38.066Z,101438.14
2022-08-04T09:04:27.719Z,101442.63
2022-08-04T09:07:42.253Z,101444.35
2022-08-04T09:10:10.194Z,101443.08
2022-08-04T09:12:42.932Z,101443.11
2022-08-04T09:15:20.144Z,101442.42
2022-08-04T09:17:55.914Z,101439.19
2022-08-04T09:20:37.139Z,101440.95
2022-08-04T09:23:18.336Z,101438.24
2022-08-04T09:26:39.738Z,101433.07
2022-08-04T09:29:21.708Z,101443.57
2022-08-04T09:32:06.778Z,101441.09
2022-08-04T09:35:03.713Z,101456.29
2022-08-04T09:37:50.088Z,101445.83
2022-08-04T09:40:53.224Z,101446.77
2022-08-04T09:43:59.359Z,101453.70
2022-08-04T09:46:35.687Z,101451.81
2022-08-04T09:49:16.083Z,101451.81
2022-08-04T09:51:57.911Z,101452.89
2022-08-04T09:54:52.890Z,101443.80
2022-08-04T09:57:38.934Z,101446.12
2022-08-04T10:00:07.844Z,101445.27
2022-08-04T10:02:42.089Z,101441.61
2022-08-04T10:05:26.163Z,101434.71
2022-08-04T10:08:17.310Z,101432.75
2022-08-04T10:11:22.471Z,101439.55
2022-08-04T10:13:58.204Z,101425.33
2022-08-04T10:16:57.625Z,101420.59
2022-08-04T10:19:29.983Z,101410.91
2022-08-04T10:22:29.204Z,101409.96
2022-08-04T10:25:38.993Z,101408.20
2022-08-04T10:28:24.905Z,101410.77
2022-08-04T10:31:04.773Z,101412.80
2022-08-04T10:33:34.233Z,101404.14
2022-08-04T10:36:13.313Z,101407.38
2022-08-04T10:39:43.163Z,101403.29
2022-08-04T10:42:23.948Z,101407.41
2022-08-04T10:45:56.087Z,101407.38
2022-08-04T10:48:45.542Z,101396.42
2022-08-04T10:51:16.361Z,101402.47
2022-08-04T10:53:47.029Z,101403.35
2022-08-04T10:56:22.596Z,101396.32
2022-08-04T10:58:55.011Z,101391.26
2022-08-04T11:01:59.949Z,101381.58
2022-08-04T11:04:42.765Z,101395.15
2022-08-04T11:07:10.881Z,101377.33
2022-08-04T11:09:44.110Z,101377.72
2022-08-04T11:12:24.751Z,101382.00
2022-08-04T11:15:11.147Z,101376.12
2022-08-04T11:18:00.526Z,101371.73
2022-08-04T11:20:36.787Z,101375.95
2022-08-04T11:23:10.778Z,101361.89
2022-08-04T11:25:52.261Z,101366.51
2022-08-04T11:28:23.795Z,101367.88
2022-08-04T11:31:04.823Z,101370.33
2022-08-04T11:34:10.738Z,101365.39
2022-08-04T11:36:43.035Z,101365.55
2022-08-04T11:39:22.929Z,101364.25
2022-08-04T11:41:59.231Z,101372.65
2022-08-04T11:44:47.272Z,101366.57
2022-08-04T11:47:33.321Z,101364.61
2022-08-04T11:50:18.357Z,101362.77
2022-08-04T11:52:49.197Z,101371.84
2022-08-04T11:55:22.484Z,101376.61
2022-08-04T11:57:54.044Z,101377.06
2022-08-04T12:00:22.507Z,101368.23
2022-08-04T12:03:03.394Z,101366.90
2022-08-04T12:05:43.101Z,101371.34
2022-08-04T12:08:59.964Z,101376.25
2022-08-04T12:11:40.742Z,101372.52
2022-08-04T12:14:16.429Z,101367.03
2022-08-04T12:16:49.882Z,101366.73
2022-08-04T12:20:04.531Z,101366.90
2022-08-04T12:22:31.260Z,101358.49
2022-08-04T12:25:10.165Z,101358.85
2022-08-04T12:27:57.826Z,101358.98
2022-08-04T12:31:00.654Z,101354.51
2022-08-04T12:34:03.587Z,101352.18
2022-08-04T12:36:45.784Z,101344.96
2022-08-04T12:39:24.546Z,101338.52
2022-08-04T12:42:05.877Z,101330.41
2022-08-04T12:44:41.073Z,101333.35
2022-08-04T12:47:26.376Z,101334.43
2022-08-04T12:50:03.028Z,101331.16
2022-08-04T12:53:03.708Z,101325.86
2022-08-04T12:55:34.563Z,101320.14
2022-08-04T12:58:04.099Z,101315.83
2022-08-04T13:00:41.764Z,101323.12
2022-08-04T13:03:15.347Z,101314.71
2022-08-04T13:05:43.741Z,101315.99
2022-08-04T13:08:12.650Z,101314.45
2022-08-04T13:10:46.979Z,101308.93
2022-08-04T13:13:24.890Z,101314.09
2022-08-04T13:16:00.221Z,101301.08
2022-08-04T13:18:32.678Z,101306.48
2022-08-04T13:21:21.355Z,101301.90
2022-08-04T13:24:19.767Z,101300.27
2022-08-04T13:27:06.208Z,101292.94
2022-08-04T13:29:58.219Z,101299.48
2022-08-04T13:32:29.120Z,101290.78
2022-08-04T13:34:57.478Z,101288.82
2022-08-04T13:37:37.280Z,101273.78
2022-08-04T13:40:10.455Z,101270.45
2022-08-04T13:42:38.422Z,101271.75
2022-08-04T13:45:09.561Z,101262.62
2022-08-04T13:47:41.726Z,101270.51
2022-08-04T13:50:24.604Z,101267.56
2022-08-04T13:52:56.414Z,101263.45
2022-08-04T13:55:25.769Z,101262.01
2022-08-04T13:58:01.247Z,101265.08
2022-08-04T14:00:46.421Z,101254.55
2022-08-04T14:03:53.605Z,101255.47
2022-08-04T14:06:27.201Z,101253.44
2022-08-04T14:09:07.729Z,101252.79
2022-08-04T14:12:09.821Z,101237.78
2022-08-04T14:14:34.421Z,101241.48
2022-08-04T14:17:19.811Z,101244.41
2022-08-04T14:19:49.869Z,101244.48
2022-08-04T14:22:26.885Z,101241.54
2022-08-04T14:25:15.699Z,101236.11
2022-08-04T14:27:50.908Z,101223.00
2022-08-04T14:30:32.118Z,101226.95
2022-08-04T14:34:01.662Z,101223.06
2022-08-04T14:35:58.659Z,101214.08
2022-08-04T14:38:42.282Z,101213.81
2022-08-04T14:41:12.601Z,101223.63
2022-08-04T14:43:54.720Z,101206.72
2022-08-04T14:46:23.697Z,101198.71
2022-08-04T14:49:14.206Z,101197.14
2022-08-04T14:51:43.729Z,101204.13
2022-08-04T14:54:17.660Z,101206.95
2022-08-04T14:56:53.858Z,101207.77
2022-08-04T14:59:21.799Z,101205.45
2022-08-04T15:02:00.326Z,101202.86
2022-08-04T15:04:29.556Z,101194.82
2022-08-04T15:06:57.438Z,101195.47
2022-08-04T15:09:27.743Z,101207.66
2022-08-04T15:11:55.629Z,101193.05
2022-08-04T15:14:37.085Z,101196.68
2022-08-04T15:17:30.026Z,101193.90
2022-08-04T15:19:59.128Z,101191.25
2022-08-04T15:22:31.929Z,101187.62
2022-08-04T15:25:02.611Z,101193.54
2022-08-04T15:27:32.781Z,101183.70
2022-08-04T15:30:03.120Z,101177.78
2022-08-04T15:32:31.919Z,101177.48
2022-08-04T15:35:13.208Z,101173.83
2022-08-04T15:37:59.054Z,101177.26
2022-08-04T15:40:42.353Z,101178.60
2022-08-04T15:43:31.004Z,101177.09
2022-08-04T15:46:37.421Z,101175.46
2022-08-04T15:48:53.289Z,101170.52
2022-08-04T15:51:33.054Z,101171.66
2022-08-04T15:54:03.564Z,101171.18
2022-08-04T15:56:48.330Z,101167.58
2022-08-04T15:59:59.136Z,101164.77
2022-08-04T16:02:36.486Z,101160.84
2022-08-04T16:05:18.407Z,101160.98
2022-08-04T16:07:59.711Z,101156.04
2022-08-04T16:10:36.447Z,101154.08
2022-08-04T16:13:10.948Z,101147.51
2022-08-04T16:15:39.627Z,101145.87
2022-08-04T16:18:14.208Z,101140.61
2022-08-04T16:21:03.598Z,101134.36
2022-08-04T16:23:56.817Z,101139.46
2022-08-04T16:26:45.107Z,101135.34
2022-08-04T16:29:39.939Z,101133.19
2022-08-04T16:32:13.730Z,101133.67
2022-08-04T16:34:55.151Z,101132.04
2022-08-04T16:37:39.730Z,101129.55
2022-08-04T16:40:38.120Z,101126.25
2022-08-04T16:43:16.651Z,101131.35
2022-08-04T16:45:51.922Z,101123.15
2022-08-04T16:48:27.029Z,101115.59
2022-08-04T16:51:03.457Z,101119.88
2022-08-04T16:54:21.128Z,101121.51
2022-08-04T16:56:49.295Z,101111.84
2022-08-04T16:59:17.199Z,101118.54
2022-08-04T17:01:52.139Z,101110.52
2022-08-04T17:04:37.457Z,101115.79
2022-08-04T17:07:07.062Z,101106.44
2022-08-04T17:09:34.953Z,101107.78
2022-08-04T17:12:05.471Z,101106.34
2022-08-04T17:14:33.346Z,101101.89
2022-08-04T17:17:02.844Z,101104.05
2022-08-04T17:19:30.704Z,101102.09
2022-08-04T17:22:06.043Z,101106.54
2022-08-04T17:24:39.282Z,101104.74
2022-08-04T17:28:19.547Z,101108.99
2022-08-04T17:29:58.084Z,101102.25
2022-08-04T17:32:26.278Z,101101.44
2022-08-04T17:34:55.682Z,101095.71
2022-08-04T17:37:39.951Z,101103.43
2022-08-04T17:40:18.625Z,101090.77
2022-08-04T17:44:03.723Z,101093.75
2022-08-04T17:46:36.909Z,101091.59
2022-08-04T17:49:11.319Z,101096.70
2022-08-04T17:52:04.874Z,101095.03
2022-08-04T17:54:36.616Z,101097.97
2022-08-04T17:57:22.150Z,101098.49
2022-08-04T17:59:59.590Z,101100.29
2022-08-04T18:02:33.069Z,101094.90
2022-08-04T18:05:07.372Z,101106.38
2022-08-04T18:08:35.125Z,101097.16
2022-08-04T18:10:52.695Z,101093.55
2022-08-04T18:13:42.296Z,101098.49
2022-08-04T18:16:22.606Z,101109.12
2022-08-04T18:19:13.856Z,101102.88
2022-08-04T18:21:46.730Z,101103.79
2022-08-04T18:24:35.607Z,101108.04
2022-08-04T18:27:20.427Z,101102.45
2022-08-04T18:30:33.986Z,101099.93
2022-08-04T18:33:04.348Z,101103.82
2022-08-04T18:36:31.208Z,101102.77
2022-08-04T18:38:23.333Z,101113.73
2022-08-04T18:40:57.662Z,101111.41
2022-08-04T18:43:27.810Z,101113.66
2022-08-04T18:45:59.618Z,101120.53
2022-08-04T18:48:36.401Z,101114.09
2022-08-04T18:54:02.558Z,101112.68
2022-08-04T18:56:32.426Z,101120.27
2022-08-04T18:59:10.377Z,101128.02
2022-08-04T19:02:13.325Z,101121.38
2022-08-04T19:04:37.852Z,101133.31
2022-08-04T19:07:26.597Z,101131.35
2022-08-04T19:09:59.663Z,101133.97
2022-08-04T19:12:29.986Z,101148.26
2022-08-04T19:15:08.799Z,101132.50
2022-08-04T19:17:55.049Z,101149.53
2022-08-04T19:20:27.969Z,101152.73
2022-08-04T19:24:10.811Z,101151.92
2022-08-04T19:26:01.681Z,101158.46
2022-08-04T19:28:36.528Z,101154.70
2022-08-04T19:31:09.655Z,101162.12
2022-08-04T19:33:59.279Z,101160.81
2022-08-04T19:36:34.644Z,101166.53
2022-08-04T19:39:11.427Z,101165.36
2022-08-04T19:42:04.243Z,101167.19
2022-08-04T19:44:30.593Z,101163.16
2022-08-04T19:47:00.792Z,101164.41
2022-08-04T19:52:34.107Z,101172.91
2022-08-04T19:55:10.771Z,101178.50
2022-08-04T20:00:35.819Z,101180.95
2022-08-04T20:03:11.240Z,101178.63
2022-08-04T20:05:54.743Z,101181.67
2022-08-04T20:08:31.257Z,101181.38
2022-08-04T20:11:02.145Z,101183.96
2022-08-04T20:13:37.458Z,101184.06
2022-08-04T20:16:29.418Z,101186.80
2022-08-04T20:19:06.196Z,101179.74
2022-08-04T20:21:55.024Z,101189.95
2022-08-04T20:24:40.245Z,101192.59
2022-08-04T20:27:21.711Z,101198.19
2022-08-04T20:29:50.728Z,101199.55
2022-08-04T20:32:28.684Z,101196.45
2022-08-04T20:35:02.787Z,101196.02
2022-08-04T20:38:00.116Z,101206.20
2022-08-04T20:40:21.244Z,101206.36
2022-08-04T20:42:57.220Z,101202.34
2022-08-04T20:45:56.889Z,101206.55
2022-08-04T20:48:21.358Z,101206.62
2022-08-04T20:50:53.686Z,101205.51
2022-08-04T20:56:19.359Z,101207.05
2022-08-04T20:59:07.833Z,101215.55
2022-08-04T21:01:49.072Z,101205.93
2022-08-04T21:04:33.303Z,101206.45
2022-08-04T21:07:02.968Z,101212.70
2022-08-04T21:09:49.937Z,101202.63
2022-08-04T21:12:28.614Z,101198.94
2022-08-04T21:15:13.595Z,101214.04
2022-08-04T21:17:58.277Z,101206.62
2022-08-04T21:20:36.123Z,101206.45
2022-08-04T21:23:09.692Z,101212.02
2022-08-04T21:25:43.624Z,101216.82
2022-08-04T21:28:20.172Z,101209.89
2022-08-04T21:30:55.842Z,101211.82
2022-08-04T21:33:50.222Z,101214.50
2022-08-04T21:36:19.614Z,101218.49
2022-08-04T21:38:53.853Z,101210.25
2022-08-04T21:41:27.004Z,101216.66
2022-08-04T21:43:55.450Z,101220.98
2022-08-04T21:46:23.295Z,101214.30
2022-08-04T21:48:53.547Z,101226.56
2022-08-04T21:51:59.623Z,101222.45
2022-08-04T21:54:17.295Z,101224.67
2022-08-04T21:56:49.279Z,101224.80
2022-08-04T21:59:28.461Z,101227.84
2022-08-04T22:01:59.965Z,101228.33
2022-08-04T22:04:33.489Z,101229.67
2022-08-04T22:07:04.075Z,101221.34
2022-08-04T22:09:41.396Z,101216.82
2022-08-04T22:12:20.955Z,101231.93
2022-08-04T22:14:57.758Z,101227.02
2022-08-04T22:17:35.734Z,101230.81
2022-08-04T22:20:04.901Z,101224.27
2022-08-04T22:22:37.809Z,101225.16
2022-08-04T22:25:13.291Z,101228.10
2022-08-04T22:28:02.555Z,101231.08
2022-08-04T22:30:36.863Z,101229.05
2022-08-04T22:33:09.575Z,101224.41
2022-08-04T22:35:44.235Z,101228.16
2022-08-04T22:38:24.499Z,101218.62
2022-08-04T22:41:10.659Z,101219.99
2022-08-04T22:43:41.618Z,101222.18
2022-08-04T22:46:27.459Z,101221.43
2022-08-04T22:48:55.304Z,101219.41
2022-08-04T22:51:24.014Z,101217.38
2022-08-04T22:53:55.295Z,101217.84
2022-08-04T22:56:37.739Z,101213.32
2022-08-04T22:59:10.011Z,101211.69
2022-08-04T23:02:00.734Z,101207.17
2022-08-04T23:04:30.505Z,101208.05
2022-08-04T23:07:00.589Z,101215.19
2022-08-04T23:09:51.129Z,101219.83
2022-08-04T23:12:25.620Z,101219.47
2022-08-04T23:14:57.979Z,101207.44
2022-08-04T23:17:28.940Z,101205.38
2022-08-04T23:19:59.268Z,101205.80
2022-08-04T23:22:43.038Z,101206.66
2022-08-04T23:25:17.190Z,101208.38
2022-08-04T23:27:51.444Z,101201.75
2022-08-04T23:30:24.718Z,101212.18
2022-08-04T23:33:00.036Z,101210.97
2022-08-04T23:35:27.974Z,101220.98
2022-08-04T23:37:57.835Z,101218.49
2022-08-04T23:40:34.758Z,101210.97
2022-08-04T23:43:26.084Z,101212.70
2022-08-04T23:46:12.536Z,101221.46
2022-08-04T23:48:41.003Z,101217.28
2022-08-04T23:51:14.241Z,101218.09
2022-08-04T23:54:01.858Z,101213.55
2022-08-04T23:56:32.488Z,101223.10
2022-08-04T23:59:03.491Z,101215.19
